Bylas, Arizona
Current Conditions -  °F | °C
As of 7:51 PM on Sunday 21 Dec 2014 (Local Time) from KSAD Reporting Station
Clear Clear  
Wind Chill: 50°   Ceiling: Unl
Heat Index: 50°   Visibility: 10mi
Dew Point: 35°   Wind: 13mph
Humidity: 57%   Direction: 310°NW
Pressure: 30.01"   Gusts: NA
Location:  33.14°N, 110.13°W
Report Text: KSAD 220251Z AUTO 31011KT 10SM CLR 10/02 A3001 RMK AO2 SLP154 T01000017 50002
Loading
Personal Weather Stations






























Interactive Weather Map New forecast layout! Learn more

10-Day Weather Forecast

Advertisements
Track Severe Weather on mobile